sensor_id;sensor_type;location;lat;lon;timestamp;pressure;altitude;pressure_sealevel;temperature;humidity
45872;BME280;32333;55.844;-3.210;2023-03-31T00:01:48;97274.79;;;7.34;100.00
45872;BME280;32333;55.844;-3.210;2023-03-31T00:04:16;97271.60;;;7.27;100.00
45872;BME280;32333;55.844;-3.210;2023-03-31T00:06:44;97265.26;;;8.98;100.00
45872;BME280;32333;55.844;-3.210;2023-03-31T00:09:14;97259.65;;;9.41;100.00
45872;BME280;32333;55.844;-3.210;2023-03-31T00:11:42;97255.08;;;8.17;100.00
45872;BME280;32333;55.844;-3.210;2023-03-31T00:14:35;97247.43;;;9.37;100.00
45872;BME280;32333;55.844;-3.210;2023-03-31T00:17:03;97244.43;;;8.29;100.00
45872;BME280;32333;55.844;-3.210;2023-03-31T00:19:30;97237.81;;;6.82;100.00
45872;BME280;32333;55.844;-3.210;2023-03-31T00:21:59;97232.28;;;6.73;100.00
45872;BME280;32333;55.844;-3.210;2023-03-31T00:24:27;97233.40;;;10.46;100.00
45872;BME280;32333;55.844;-3.210;2023-03-31T00:26:55;97231.71;;;10.38;100.00
45872;BME280;32333;55.844;-3.210;2023-03-31T00:29:23;97233.40;;;9.07;100.00
45872;BME280;32333;55.844;-3.210;2023-03-31T00:31:51;97233.28;;;8.70;100.00
45872;BME280;32333;55.844;-3.210;2023-03-31T00:34:19;97231.05;;;10.08;100.00
45872;BME280;32333;55.844;-3.210;2023-03-31T00:36:47;97226.91;;;9.33;100.00
45872;BME280;32333;55.844;-3.210;2023-03-31T00:39:17;97222.03;;;8.73;100.00
45872;BME280;32333;55.844;-3.210;2023-03-31T00:41:44;97221.45;;;9.19;100.00
45872;BME280;32333;55.844;-3.210;2023-03-31T00:44:38;97221.52;;;6.81;100.00
45872;BME280;32333;55.844;-3.210;2023-03-31T00:47:49;97219.71;;;8.00;100.00
45872;BME280;32333;55.844;-3.210;2023-03-31T00:50:21;97209.60;;;8.90;100.00
45872;BME280;32333;55.844;-3.210;2023-03-31T00:52:53;97206.18;;;7.82;100.00
45872;BME280;32333;55.844;-3.210;2023-03-31T00:55:25;97209.17;;;7.95;100.00
45872;BME280;32333;55.844;-3.210;2023-03-31T00:57:54;97203.30;;;8.03;100.00
45872;BME280;32333;55.844;-3.210;2023-03-31T01:00:23;97192.37;;;8.19;100.00
45872;BME280;32333;55.844;-3.210;2023-03-31T01:02:53;97189.73;;;9.28;100.00
45872;BME280;32333;55.844;-3.210;2023-03-31T01:05:25;97190.49;;;8.21;100.00
45872;BME280;32333;55.844;-3.210;2023-03-31T01:07:53;97186.45;;;9.07;100.00
45872;BME280;32333;55.844;-3.210;2023-03-31T01:10:22;97175.29;;;7.36;100.00
45872;BME280;32333;55.844;-3.210;2023-03-31T01:14:35;97177.79;;;8.46;100.00
45872;BME280;32333;55.844;-3.210;2023-03-31T01:17:03;97174.13;;;9.07;100.00
45872;BME280;32333;55.844;-3.210;2023-03-31T01:19:41;97166.42;;;8.61;100.00
45872;BME280;32333;55.844;-3.210;2023-03-31T01:22:33;97160.20;;;7.81;100.00
45872;BME280;32333;55.844;-3.210;2023-03-31T01:26:55;97161.15;;;7.10;100.00
45872;BME280;32333;55.844;-3.210;2023-03-31T01:29:46;97155.58;;;6.90;100.00
45872;BME280;32333;55.844;-3.210;2023-03-31T01:33:07;97153.35;;;8.13;100.00
45872;BME280;32333;55.844;-3.210;2023-03-31T01:35:57;97142.68;;;6.92;100.00
45872;BME280;32333;55.844;-3.210;2023-03-31T01:38:59;97144.75;;;6.68;100.00
45872;BME280;32333;55.844;-3.210;2023-03-31T01:41:39;97148.04;;;7.44;100.00
45872;BME280;32333;55.844;-3.210;2023-03-31T01:44:42;97146.27;;;7.52;100.00
45872;BME280;32333;55.844;-3.210;2023-03-31T01:47:15;97146.15;;;5.14;100.00
45872;BME280;32333;55.844;-3.210;2023-03-31T01:49:50;97161.76;;;6.21;100.00
45872;BME280;32333;55.844;-3.210;2023-03-31T01:52:24;97170.03;;;6.32;100.00
45872;BME280;32333;55.844;-3.210;2023-03-31T01:54:59;97168.36;;;5.31;100.00
45872;BME280;32333;55.844;-3.210;2023-03-31T01:57:31;97165.26;;;6.27;100.00
45872;BME280;32333;55.844;-3.210;2023-03-31T02:00:04;97171.53;;;5.92;100.00
45872;BME280;32333;55.844;-3.210;2023-03-31T02:02:37;97169.97;;;6.32;100.00
45872;BME280;32333;55.844;-3.210;2023-03-31T02:05:09;97163.54;;;7.34;100.00
45872;BME280;32333;55.844;-3.210;2023-03-31T02:07:41;97156.74;;;6.60;100.00
45872;BME280;32333;55.844;-3.210;2023-03-31T02:10:11;97151.57;;;7.30;100.00
45872;BME280;32333;55.844;-3.210;2023-03-31T02:14:39;97138.45;;;8.04;100.00
45872;BME280;32333;55.844;-3.210;2023-03-31T02:17:12;97137.30;;;7.58;100.00
45872;BME280;32333;55.844;-3.210;2023-03-31T02:19:42;97130.06;;;7.99;100.00
45872;BME280;32333;55.844;-3.210;2023-03-31T02:22:13;97127.59;;;7.75;100.00
45872;BME280;32333;55.844;-3.210;2023-03-31T02:24:43;97128.96;;;7.57;100.00
45872;BME280;32333;55.844;-3.210;2023-03-31T02:27:16;97123.79;;;6.72;100.00
45872;BME280;32333;55.844;-3.210;2023-03-31T02:29:45;97122.85;;;6.76;100.00
45872;BME280;32333;55.844;-3.210;2023-03-31T02:32:17;97115.01;;;6.66;100.00
45872;BME280;32333;55.844;-3.210;2023-03-31T02:34:47;97112.45;;;7.16;100.00
45872;BME280;32333;55.844;-3.210;2023-03-31T02:37:16;97116.43;;;7.65;100.00
45872;BME280;32333;55.844;-3.210;2023-03-31T02:39:47;97112.90;;;8.43;100.00
45872;BME280;32333;55.844;-3.210;2023-03-31T02:44:38;97104.46;;;9.09;100.00
45872;BME280;32333;55.844;-3.210;2023-03-31T02:47:07;97102.02;;;8.37;100.00
45872;BME280;32333;55.844;-3.210;2023-03-31T02:49:37;97097.24;;;8.60;100.00
45872;BME280;32333;55.844;-3.210;2023-03-31T02:52:22;97090.06;;;8.36;100.00
45872;BME280;32333;55.844;-3.210;2023-03-31T02:55:49;97083.80;;;9.28;100.00
45872;BME280;32333;55.844;-3.210;2023-03-31T02:59:17;97082.98;;;8.78;100.00
45872;BME280;32333;55.844;-3.210;2023-03-31T03:01:59;97081.52;;;8.30;100.00
45872;BME280;32333;55.844;-3.210;2023-03-31T03:04:48;97078.09;;;8.67;100.00
45872;BME280;32333;55.844;-3.210;2023-03-31T03:07:24;97066.26;;;8.53;100.00
45872;BME280;32333;55.844;-3.210;2023-03-31T03:10:03;97071.49;;;7.92;100.00
45872;BME280;32333;55.844;-3.210;2023-03-31T03:14:40;97075.76;;;7.11;100.00
45872;BME280;32333;55.844;-3.210;2023-03-31T03:17:12;97070.34;;;8.10;100.00
45872;BME280;32333;55.844;-3.210;2023-03-31T03:19:41;97061.58;;;8.99;100.00
45872;BME280;32333;55.844;-3.210;2023-03-31T03:22:10;97060.93;;;8.59;100.00
45872;BME280;32333;55.844;-3.210;2023-03-31T03:24:37;97061.41;;;7.76;100.00
45872;BME280;32333;55.844;-3.210;2023-03-31T03:27:04;97052.24;;;7.43;100.00
45872;BME280;32333;55.844;-3.210;2023-03-31T03:29:33;97053.35;;;6.77;100.00
45872;BME280;32333;55.844;-3.210;2023-03-31T03:32:00;97053.47;;;6.03;100.00
45872;BME280;32333;55.844;-3.210;2023-03-31T03:34:28;97047.40;;;7.41;100.00
45872;BME280;32333;55.844;-3.210;2023-03-31T03:36:56;97048.68;;;6.64;100.00
45872;BME280;32333;55.844;-3.210;2023-03-31T03:39:23;97050.07;;;8.48;100.00
45872;BME280;32333;55.844;-3.210;2023-03-31T03:41:52;97042.49;;;8.45;100.00
45872;BME280;32333;55.844;-3.210;2023-03-31T03:44:35;97032.12;;;8.93;100.00
45872;BME280;32333;55.844;-3.210;2023-03-31T03:47:02;97028.02;;;8.91;100.00
45872;BME280;32333;55.844;-3.210;2023-03-31T03:49:30;97019.29;;;8.87;100.00
45872;BME280;32333;55.844;-3.210;2023-03-31T03:51:57;97016.96;;;8.52;100.00
45872;BME280;32333;55.844;-3.210;2023-03-31T03:54:25;97016.31;;;9.26;100.00
45872;BME280;32333;55.844;-3.210;2023-03-31T03:56:52;97015.15;;;8.25;100.00
45872;BME280;32333;55.844;-3.210;2023-03-31T03:59:20;97011.16;;;8.53;100.00
45872;BME280;32333;55.844;-3.210;2023-03-31T04:01:49;97011.70;;;9.53;100.00
45872;BME280;32333;55.844;-3.210;2023-03-31T04:04:17;97012.52;;;10.63;100.00
45872;BME280;32333;55.844;-3.210;2023-03-31T04:06:45;97008.21;;;9.10;100.00
45872;BME280;32333;55.844;-3.210;2023-03-31T04:09:12;97013.92;;;10.57;100.00
45872;BME280;32333;55.844;-3.210;2023-03-31T04:11:40;97011.71;;;9.83;100.00
45872;BME280;32333;55.844;-3.210;2023-03-31T04:14:36;97007.26;;;9.73;100.00
45872;BME280;32333;55.844;-3.210;2023-03-31T04:17:03;97004.33;;;8.97;100.00
45872;BME280;32333;55.844;-3.210;2023-03-31T04:19:31;97006.16;;;9.30;100.00
45872;BME280;32333;55.844;-3.210;2023-03-31T04:21:59;97006.98;;;9.93;100.00
45872;BME280;32333;55.844;-3.210;2023-03-31T04:24:26;97002.68;;;9.48;100.00
45872;BME280;32333;55.844;-3.210;2023-03-31T04:26:54;97003.33;;;9.87;100.00
45872;BME280;32333;55.844;-3.210;2023-03-31T04:29:22;97000.35;;;10.27;100.00
45872;BME280;32333;55.844;-3.210;2023-03-31T04:31:49;96992.56;;;9.56;100.00
45872;BME280;32333;55.844;-3.210;2023-03-31T04:34:17;96992.97;;;10.34;100.00
45872;BME280;32333;55.844;-3.210;2023-03-31T04:36:45;96994.27;;;8.24;100.00
45872;BME280;32333;55.844;-3.210;2023-03-31T04:39:15;96988.30;;;8.55;100.00
45872;BME280;32333;55.844;-3.210;2023-03-31T04:41:43;96988.59;;;8.60;100.00
45872;BME280;32333;55.844;-3.210;2023-03-31T04:44:35;96987.48;;;7.95;100.00
45872;BME280;32333;55.844;-3.210;2023-03-31T04:47:03;96989.94;;;7.75;100.00
45872;BME280;32333;55.844;-3.210;2023-03-31T04:49:32;96989.88;;;8.30;100.00
45872;BME280;32333;55.844;-3.210;2023-03-31T04:51:59;96991.55;;;7.98;100.00
45872;BME280;32333;55.844;-3.210;2023-03-31T04:54:26;96991.33;;;8.39;100.00
45872;BME280;32333;55.844;-3.210;2023-03-31T04:56:54;96991.30;;;7.80;100.00
45872;BME280;32333;55.844;-3.210;2023-03-31T04:59:23;96986.67;;;8.40;100.00
45872;BME280;32333;55.844;-3.210;2023-03-31T05:01:52;96982.62;;;7.95;100.00
45872;BME280;32333;55.844;-3.210;2023-03-31T05:04:20;96990.85;;;7.74;100.00
45872;BME280;32333;55.844;-3.210;2023-03-31T05:06:48;96989.24;;;8.02;100.00
45872;BME280;32333;55.844;-3.210;2023-03-31T05:09:16;96986.92;;;8.17;100.00
45872;BME280;32333;55.844;-3.210;2023-03-31T05:11:58;96983.33;;;8.68;100.00
45872;BME280;32333;55.844;-3.210;2023-03-31T05:14:36;96986.47;;;8.24;100.00
45872;BME280;32333;55.844;-3.210;2023-03-31T05:17:04;96988.63;;;8.13;100.00
45872;BME280;32333;55.844;-3.210;2023-03-31T05:19:32;96986.65;;;8.28;100.00
45872;BME280;32333;55.844;-3.210;2023-03-31T05:22:00;96989.97;;;7.76;100.00
45872;BME280;32333;55.844;-3.210;2023-03-31T05:24:27;96992.56;;;7.28;100.00
45872;BME280;32333;55.844;-3.210;2023-03-31T05:26:56;96983.77;;;8.84;100.00
45872;BME280;32333;55.844;-3.210;2023-03-31T05:29:24;96983.54;;;7.82;100.00
45872;BME280;32333;55.844;-3.210;2023-03-31T05:31:51;96985.70;;;8.14;100.00
45872;BME280;32333;55.844;-3.210;2023-03-31T05:34:19;96983.67;;;7.80;100.00
45872;BME280;32333;55.844;-3.210;2023-03-31T05:36:48;96986.06;;;8.42;100.00
45872;BME280;32333;55.844;-3.210;2023-03-31T05:39:16;96992.94;;;6.94;100.00
45872;BME280;32333;55.844;-3.210;2023-03-31T05:41:43;96994.32;;;7.06;100.00
45872;BME280;32333;55.844;-3.210;2023-03-31T05:44:35;96989.16;;;8.25;100.00
45872;BME280;32333;55.844;-3.210;2023-03-31T05:47:03;96995.71;;;7.93;100.00
45872;BME280;32333;55.844;-3.210;2023-03-31T05:49:30;96999.92;;;6.93;100.00
45872;BME280;32333;55.844;-3.210;2023-03-31T05:51:59;97001.16;;;7.68;100.00
45872;BME280;32333;55.844;-3.210;2023-03-31T05:54:27;97000.83;;;8.38;100.00
45872;BME280;32333;55.844;-3.210;2023-03-31T05:56:54;97008.30;;;7.69;100.00
45872;BME280;32333;55.844;-3.210;2023-03-31T05:59:21;97012.87;;;7.25;100.00
45872;BME280;32333;55.844;-3.210;2023-03-31T06:01:50;97007.89;;;7.46;100.00
45872;BME280;32333;55.844;-3.210;2023-03-31T06:04:19;97015.41;;;7.23;100.00
45872;BME280;32333;55.844;-3.210;2023-03-31T06:06:47;97011.77;;;5.08;100.00
45872;BME280;32333;55.844;-3.210;2023-03-31T06:09:15;97013.48;;;6.51;100.00
45872;BME280;32333;55.844;-3.210;2023-03-31T06:11:43;97015.75;;;5.95;100.00
45872;BME280;32333;55.844;-3.210;2023-03-31T06:14:35;97017.42;;;6.63;100.00
45872;BME280;32333;55.844;-3.210;2023-03-31T06:17:03;97014.47;;;6.39;100.00
45872;BME280;32333;55.844;-3.210;2023-03-31T06:19:30;97017.11;;;5.90;100.00
45872;BME280;32333;55.844;-3.210;2023-03-31T06:21:59;97016.12;;;6.84;100.00
45872;BME280;32333;55.844;-3.210;2023-03-31T06:24:26;97015.51;;;6.27;100.00
45872;BME280;32333;55.844;-3.210;2023-03-31T06:26:53;97015.67;;;6.87;100.00
45872;BME280;32333;55.844;-3.210;2023-03-31T06:29:21;97015.69;;;6.71;100.00
45872;BME280;32333;55.844;-3.210;2023-03-31T06:31:52;97016.43;;;6.97;100.00
45872;BME280;32333;55.844;-3.210;2023-03-31T06:34:53;97018.74;;;7.29;100.00
45872;BME280;32333;55.844;-3.210;2023-03-31T06:37:20;97021.69;;;6.55;100.00
45872;BME280;32333;55.844;-3.210;2023-03-31T06:39:48;97019.56;;;6.85;100.00
45872;BME280;32333;55.844;-3.210;2023-03-31T06:45:26;97033.06;;;7.69;100.00
45872;BME280;32333;55.844;-3.210;2023-03-31T06:47:54;97036.34;;;7.04;100.00
45872;BME280;32333;55.844;-3.210;2023-03-31T06:50:22;97036.22;;;6.55;100.00
45872;BME280;32333;55.844;-3.210;2023-03-31T06:52:50;97039.22;;;6.42;100.00
45872;BME280;32333;55.844;-3.210;2023-03-31T06:55:19;97042.50;;;7.40;100.00
45872;BME280;32333;55.844;-3.210;2023-03-31T06:57:48;97042.93;;;6.03;100.00
45872;BME280;32333;55.844;-3.210;2023-03-31T07:00:18;97042.68;;;6.13;100.00
45872;BME280;32333;55.844;-3.210;2023-03-31T07:02:46;97046.98;;;6.60;100.00
45872;BME280;32333;55.844;-3.210;2023-03-31T07:05:14;97045.00;;;6.76;100.00
45872;BME280;32333;55.844;-3.210;2023-03-31T07:07:42;97051.04;;;6.92;100.00
45872;BME280;32333;55.844;-3.210;2023-03-31T07:10:12;97053.08;;;7.13;100.00
45872;BME280;32333;55.844;-3.210;2023-03-31T07:14:35;97055.94;;;6.91;100.00
45872;BME280;32333;55.844;-3.210;2023-03-31T07:17:03;97053.76;;;7.14;100.00
45872;BME280;32333;55.844;-3.210;2023-03-31T07:19:31;97059.36;;;6.63;100.00
45872;BME280;32333;55.844;-3.210;2023-03-31T07:22:00;97058.60;;;6.79;100.00
45872;BME280;32333;55.844;-3.210;2023-03-31T07:24:28;97054.72;;;6.81;100.00
45872;BME280;32333;55.844;-3.210;2023-03-31T07:26:55;97056.56;;;6.95;100.00
45872;BME280;32333;55.844;-3.210;2023-03-31T07:29:23;97059.12;;;7.05;100.00
45872;BME280;32333;55.844;-3.210;2023-03-31T07:31:52;97062.12;;;6.77;100.00
45872;BME280;32333;55.844;-3.210;2023-03-31T07:34:20;97071.74;;;6.65;100.00
45872;BME280;32333;55.844;-3.210;2023-03-31T07:36:49;97072.32;;;6.62;100.00
45872;BME280;32333;55.844;-3.210;2023-03-31T07:39:16;97075.73;;;6.45;100.00
45872;BME280;32333;55.844;-3.210;2023-03-31T07:41:44;97075.65;;;7.58;100.00
45872;BME280;32333;55.844;-3.210;2023-03-31T07:44:37;97079.39;;;7.13;100.00
45872;BME280;32333;55.844;-3.210;2023-03-31T07:47:05;97078.58;;;7.08;100.00
45872;BME280;32333;55.844;-3.210;2023-03-31T07:49:33;97082.80;;;6.88;100.00
45872;BME280;32333;55.844;-3.210;2023-03-31T07:52:02;97081.54;;;6.57;100.00
45872;BME280;32333;55.844;-3.210;2023-03-31T07:54:29;97085.48;;;6.38;100.00
45872;BME280;32333;55.844;-3.210;2023-03-31T07:56:57;97088.73;;;7.08;100.00
45872;BME280;32333;55.844;-3.210;2023-03-31T07:59:26;97091.54;;;6.81;100.00
45872;BME280;32333;55.844;-3.210;2023-03-31T08:01:54;97090.89;;;6.23;100.00
45872;BME280;32333;55.844;-3.210;2023-03-31T08:04:22;97090.09;;;6.85;100.00
45872;BME280;32333;55.844;-3.210;2023-03-31T08:06:50;97096.06;;;6.48;100.00
45872;BME280;32333;55.844;-3.210;2023-03-31T08:09:18;97095.93;;;6.47;100.00
45872;BME280;32333;55.844;-3.210;2023-03-31T08:11:46;97099.68;;;6.13;100.00
45872;BME280;32333;55.844;-3.210;2023-03-31T08:14:36;97098.81;;;6.07;100.00
45872;BME280;32333;55.844;-3.210;2023-03-31T08:17:04;97105.17;;;5.14;100.00
45872;BME280;32333;55.844;-3.210;2023-03-31T08:19:32;97105.21;;;6.27;100.00
45872;BME280;32333;55.844;-3.210;2023-03-31T08:22:03;97104.07;;;5.92;100.00
45872;BME280;32333;55.844;-3.210;2023-03-31T08:24:31;97103.82;;;5.25;100.00
45872;BME280;32333;55.844;-3.210;2023-03-31T08:26:59;97114.15;;;5.71;100.00
45872;BME280;32333;55.844;-3.210;2023-03-31T08:29:28;97117.54;;;5.82;100.00
45872;BME280;32333;55.844;-3.210;2023-03-31T08:31:57;97114.88;;;5.08;100.00
45872;BME280;32333;55.844;-3.210;2023-03-31T08:34:24;97116.86;;;4.86;100.00
45872;BME280;32333;55.844;-3.210;2023-03-31T08:36:51;97126.05;;;5.42;100.00
45872;BME280;32333;55.844;-3.210;2023-03-31T08:39:20;97128.73;;;4.69;100.00
45872;BME280;32333;55.844;-3.210;2023-03-31T08:41:54;97129.21;;;5.53;100.00
45872;BME280;32333;55.844;-3.210;2023-03-31T08:44:40;97130.75;;;5.47;100.00
45872;BME280;32333;55.844;-3.210;2023-03-31T08:47:13;97128.10;;;4.93;100.00
45872;BME280;32333;55.844;-3.210;2023-03-31T08:49:46;97132.13;;;5.24;100.00
45872;BME280;32333;55.844;-3.210;2023-03-31T08:52:21;97130.09;;;5.77;100.00
45872;BME280;32333;55.844;-3.210;2023-03-31T08:54:54;97134.93;;;6.42;100.00
45872;BME280;32333;55.844;-3.210;2023-03-31T08:57:27;97128.09;;;7.04;100.00
45872;BME280;32333;55.844;-3.210;2023-03-31T09:00:21;97132.68;;;5.92;100.00
45872;BME280;32333;55.844;-3.210;2023-03-31T09:02:53;97136.44;;;6.04;100.00
45872;BME280;32333;55.844;-3.210;2023-03-31T09:05:38;97135.38;;;6.66;100.00
45872;BME280;32333;55.844;-3.210;2023-03-31T09:08:30;97140.13;;;6.94;100.00
45872;BME280;32333;55.844;-3.210;2023-03-31T09:11:07;97142.09;;;7.17;100.00
45872;BME280;32333;55.844;-3.210;2023-03-31T09:14:39;97146.77;;;6.74;100.00
45872;BME280;32333;55.844;-3.210;2023-03-31T09:17:17;97154.51;;;6.34;100.00
45872;BME280;32333;55.844;-3.210;2023-03-31T09:19:51;97157.24;;;6.53;100.00
45872;BME280;32333;55.844;-3.210;2023-03-31T09:22:24;97157.07;;;6.02;100.00
45872;BME280;32333;55.844;-3.210;2023-03-31T09:24:58;97158.68;;;5.67;100.00
45872;BME280;32333;55.844;-3.210;2023-03-31T09:27:30;97158.53;;;6.78;100.00
45872;BME280;32333;55.844;-3.210;2023-03-31T09:30:03;97163.31;;;6.31;100.00
45872;BME280;32333;55.844;-3.210;2023-03-31T09:32:38;97167.04;;;6.61;100.00
45872;BME280;32333;55.844;-3.210;2023-03-31T09:35:16;97170.01;;;6.65;100.00
45872;BME280;32333;55.844;-3.210;2023-03-31T09:37:46;97171.71;;;6.98;100.00
45872;BME280;32333;55.844;-3.210;2023-03-31T09:40:19;97175.83;;;6.01;100.00
45872;BME280;32333;55.844;-3.210;2023-03-31T09:44:37;97176.14;;;6.34;100.00
45872;BME280;32333;55.844;-3.210;2023-03-31T09:47:14;97179.83;;;5.77;100.00
45872;BME280;32333;55.844;-3.210;2023-03-31T09:49:46;97180.01;;;6.06;100.00
45872;BME280;32333;55.844;-3.210;2023-03-31T09:52:22;97179.67;;;6.32;100.00
45872;BME280;32333;55.844;-3.210;2023-03-31T09:54:55;97183.49;;;6.56;100.00
45872;BME280;32333;55.844;-3.210;2023-03-31T09:57:27;97186.90;;;6.83;100.00
45872;BME280;32333;55.844;-3.210;2023-03-31T10:00:03;97186.47;;;6.49;100.00
45872;BME280;32333;55.844;-3.210;2023-03-31T10:02:36;97190.22;;;6.02;100.00
45872;BME280;32333;55.844;-3.210;2023-03-31T10:05:05;97191.05;;;6.62;100.00
45872;BME280;32333;55.844;-3.210;2023-03-31T10:07:34;97194.04;;;6.19;100.00
45872;BME280;32333;55.844;-3.210;2023-03-31T10:10:26;97195.89;;;6.98;100.00
45872;BME280;32333;55.844;-3.210;2023-03-31T10:14:41;97203.59;;;5.49;100.00
45872;BME280;32333;55.844;-3.210;2023-03-31T10:17:15;97209.71;;;5.74;100.00
45872;BME280;32333;55.844;-3.210;2023-03-31T10:19:48;97206.37;;;6.00;100.00
45872;BME280;32333;55.844;-3.210;2023-03-31T10:22:28;97207.28;;;5.80;100.00
45872;BME280;32333;55.844;-3.210;2023-03-31T10:25:08;97212.63;;;6.12;100.00
45872;BME280;32333;55.844;-3.210;2023-03-31T10:27:39;97210.82;;;6.68;100.00
45872;BME280;32333;55.844;-3.210;2023-03-31T10:30:11;97214.61;;;6.28;100.00
45872;BME280;32333;55.844;-3.210;2023-03-31T10:32:40;97216.79;;;6.83;100.00
45872;BME280;32333;55.844;-3.210;2023-03-31T10:35:19;97219.30;;;5.85;100.00
45872;BME280;32333;55.844;-3.210;2023-03-31T10:37:53;97222.43;;;6.26;100.00
45872;BME280;32333;55.844;-3.210;2023-03-31T10:40:25;97229.46;;;6.83;100.00
45872;BME280;32333;55.844;-3.210;2023-03-31T10:44:37;97230.69;;;6.49;100.00
45872;BME280;32333;55.844;-3.210;2023-03-31T10:47:16;97237.59;;;6.12;100.00
45872;BME280;32333;55.844;-3.210;2023-03-31T10:49:49;97237.08;;;6.52;100.00
45872;BME280;32333;55.844;-3.210;2023-03-31T10:52:22;97239.91;;;6.11;100.00
45872;BME280;32333;55.844;-3.210;2023-03-31T10:54:56;97240.66;;;6.34;100.00
45872;BME280;32333;55.844;-3.210;2023-03-31T10:57:33;97248.65;;;5.90;100.00
45872;BME280;32333;55.844;-3.210;2023-03-31T11:00:14;97249.27;;;6.09;100.00
45872;BME280;32333;55.844;-3.210;2023-03-31T11:03:52;97250.01;;;6.65;100.00
45872;BME280;32333;55.844;-3.210;2023-03-31T11:06:27;97254.41;;;6.99;100.00
45872;BME280;32333;55.844;-3.210;2023-03-31T11:09:08;97255.21;;;6.60;100.00
45872;BME280;32333;55.844;-3.210;2023-03-31T11:11:52;97256.38;;;6.26;100.00
45872;BME280;32333;55.844;-3.210;2023-03-31T11:14:43;97265.48;;;6.56;100.00
45872;BME280;32333;55.844;-3.210;2023-03-31T11:17:24;97268.59;;;6.20;100.00
45872;BME280;32333;55.844;-3.210;2023-03-31T11:20:02;97271.40;;;6.85;100.00
45872;BME280;32333;55.844;-3.210;2023-03-31T11:22:45;97272.68;;;6.17;100.00
45872;BME280;32333;55.844;-3.210;2023-03-31T11:25:24;97276.51;;;6.14;100.00
45872;BME280;32333;55.844;-3.210;2023-03-31T11:28:21;97281.47;;;6.64;100.00
45872;BME280;32333;55.844;-3.210;2023-03-31T11:30:58;97287.64;;;6.31;100.00
45872;BME280;32333;55.844;-3.210;2023-03-31T11:33:39;97292.32;;;6.40;100.00
45872;BME280;32333;55.844;-3.210;2023-03-31T11:36:20;97293.85;;;5.79;100.00
45872;BME280;32333;55.844;-3.210;2023-03-31T11:39:00;97294.20;;;6.17;100.00
45872;BME280;32333;55.844;-3.210;2023-03-31T11:41:33;97308.20;;;5.89;100.00
45872;BME280;32333;55.844;-3.210;2023-03-31T11:44:39;97305.42;;;6.53;100.00
45872;BME280;32333;55.844;-3.210;2023-03-31T11:47:09;97309.89;;;6.19;100.00
45872;BME280;32333;55.844;-3.210;2023-03-31T11:49:40;97320.49;;;6.56;100.00
45872;BME280;32333;55.844;-3.210;2023-03-31T11:52:14;97323.76;;;6.17;100.00
45872;BME280;32333;55.844;-3.210;2023-03-31T11:54:54;97323.59;;;6.71;100.00
45872;BME280;32333;55.844;-3.210;2023-03-31T11:57:28;97327.17;;;6.84;100.00
45872;BME280;32333;55.844;-3.210;2023-03-31T11:59:59;97337.11;;;6.09;100.00
45872;BME280;32333;55.844;-3.210;2023-03-31T12:02:38;97334.57;;;6.80;100.00
45872;BME280;32333;55.844;-3.210;2023-03-31T12:05:09;97337.32;;;7.63;100.00
45872;BME280;32333;55.844;-3.210;2023-03-31T12:07:42;97336.06;;;7.12;100.00
45872;BME280;32333;55.844;-3.210;2023-03-31T12:10:18;97339.35;;;6.21;100.00
45872;BME280;32333;55.844;-3.210;2023-03-31T12:14:39;97346.04;;;6.66;100.00
45872;BME280;32333;55.844;-3.210;2023-03-31T12:17:13;97345.99;;;8.03;100.00
45872;BME280;32333;55.844;-3.210;2023-03-31T12:19:46;97347.86;;;7.13;100.00
45872;BME280;32333;55.844;-3.210;2023-03-31T12:22:18;97350.45;;;6.69;100.00
45872;BME280;32333;55.844;-3.210;2023-03-31T12:24:50;97346.76;;;7.00;100.00
45872;BME280;32333;55.844;-3.210;2023-03-31T12:27:23;97351.94;;;7.30;100.00
45872;BME280;32333;55.844;-3.210;2023-03-31T12:29:57;97352.43;;;7.21;100.00
45872;BME280;32333;55.844;-3.210;2023-03-31T12:32:30;97353.36;;;7.31;100.00
45872;BME280;32333;55.844;-3.210;2023-03-31T12:35:03;97359.13;;;6.66;100.00
45872;BME280;32333;55.844;-3.210;2023-03-31T12:37:54;97364.33;;;7.41;100.00
45872;BME280;32333;55.844;-3.210;2023-03-31T12:40:33;97368.20;;;7.60;100.00
45872;BME280;32333;55.844;-3.210;2023-03-31T12:44:41;97366.23;;;7.32;100.00
45872;BME280;32333;55.844;-3.210;2023-03-31T12:47:26;97364.18;;;6.73;100.00
45872;BME280;32333;55.844;-3.210;2023-03-31T12:50:08;97360.90;;;8.38;100.00
45872;BME280;32333;55.844;-3.210;2023-03-31T12:52:44;97358.46;;;7.85;100.00
45872;BME280;32333;55.844;-3.210;2023-03-31T12:55:26;97366.88;;;8.32;100.00
45872;BME280;32333;55.844;-3.210;2023-03-31T12:58:39;97377.78;;;8.23;100.00
45872;BME280;32333;55.844;-3.210;2023-03-31T13:01:09;97382.51;;;7.30;100.00
45872;BME280;32333;55.844;-3.210;2023-03-31T13:03:44;97391.25;;;6.84;100.00
45872;BME280;32333;55.844;-3.210;2023-03-31T13:06:52;97392.04;;;7.40;100.00
45872;BME280;32333;55.844;-3.210;2023-03-31T13:09:55;97395.55;;;7.47;100.00
45872;BME280;32333;55.844;-3.210;2023-03-31T13:14:36;97402.18;;;7.51;100.00
45872;BME280;32333;55.844;-3.210;2023-03-31T13:17:24;97402.65;;;6.42;100.00
45872;BME280;32333;55.844;-3.210;2023-03-31T13:19:52;97407.22;;;7.20;100.00
45872;BME280;32333;55.844;-3.210;2023-03-31T13:22:32;97411.71;;;6.41;100.00
45872;BME280;32333;55.844;-3.210;2023-03-31T13:25:38;97413.42;;;6.98;100.00
45872;BME280;32333;55.844;-3.210;2023-03-31T13:28:12;97419.25;;;6.99;100.00
45872;BME280;32333;55.844;-3.210;2023-03-31T13:30:51;97422.28;;;7.08;100.00
45872;BME280;32333;55.844;-3.210;2023-03-31T13:33:23;97426.62;;;6.87;100.00
45872;BME280;32333;55.844;-3.210;2023-03-31T13:35:59;97431.59;;;6.91;100.00
45872;BME280;32333;55.844;-3.210;2023-03-31T13:38:42;97438.82;;;7.13;100.00
45872;BME280;32333;55.844;-3.210;2023-03-31T13:41:25;97438.22;;;6.83;100.00
45872;BME280;32333;55.844;-3.210;2023-03-31T13:44:50;97440.68;;;6.75;100.00
45872;BME280;32333;55.844;-3.210;2023-03-31T13:47:38;97451.66;;;6.86;100.00
45872;BME280;32333;55.844;-3.210;2023-03-31T13:50:20;97462.13;;;6.58;100.00
45872;BME280;32333;55.844;-3.210;2023-03-31T13:52:59;97463.65;;;5.90;100.00
45872;BME280;32333;55.844;-3.210;2023-03-31T13:56:25;97473.88;;;5.78;100.00